Time;durP1;ratioP1;P1;durP2;ratioP2;P2;SDS_P1;SDS_P2;PMS_P1;PMS_P2;Temp;Humidity;BMP_temperature;BMP_pressure;BME280_temperature;BME280_humidity;BME280_pressure;Samples;Min_cycle;Max_cycle;Signal;HPM_P1;HPM_P2
2022/11/14 00:00:48;;;;;;;78.27;39.97;;;;;;;3.77;92.44;101509.77;1671399;85;21000;-81
2022/11/14 00:03:33;;;;;;;78.60;43.10;;;;;;;3.82;92.66;101507.63;1671521;85;21046;-82
2022/11/14 00:06:19;;;;;;;77.07;40.70;;;;;;;3.85;92.77;101501.16;1671428;85;21423;-81
2022/11/14 00:09:04;;;;;;;61.53;36.53;;;;;;;3.87;92.82;101496.86;1671284;85;21019;-81
2022/11/14 00:11:50;;;;;;;55.67;33.23;;;;;;;3.91;92.97;101504.69;1671411;85;21552;-81
2022/11/14 00:14:36;;;;;;;62.13;35.30;;;;;;;3.97;93.22;101500.84;1671437;84;21003;-81
2022/11/14 00:17:21;;;;;;;56.33;32.87;;;;;;;4.00;92.90;101496.11;1651789;86;21014;-81
2022/11/14 00:20:10;;;;;;;56.20;33.40;;;;;;;4.00;92.95;101497.41;1671130;85;22071;-81
2022/11/14 00:22:57;;;;;;;54.20;32.30;;;;;;;4.01;92.69;101495.23;1671438;85;21011;-81
2022/11/14 00:25:44;;;;;;;52.60;32.03;;;;;;;4.00;92.63;101488.33;1671450;85;21027;-81
2022/11/14 00:28:29;;;;;;;57.47;32.43;;;;;;;4.01;92.59;101493.51;1671556;85;21090;-81
2022/11/14 00:31:15;;;;;;;49.53;29.43;;;;;;;4.04;92.47;101497.85;1671276;85;21094;-81
2022/11/14 00:34:00;;;;;;;53.33;32.20;;;;;;;4.00;92.36;101498.27;1671467;85;21901;-81
2022/11/14 00:36:46;;;;;;;56.43;33.57;;;;;;;4.02;92.87;101495.70;1671319;85;21118;-81
2022/11/14 00:39:31;;;;;;;55.43;31.80;;;;;;;4.08;92.94;101488.39;1671469;85;21425;-81
2022/11/14 00:42:17;;;;;;;46.67;29.03;;;;;;;4.07;92.93;101496.57;1671313;85;21055;-81
2022/11/14 00:45:02;;;;;;;47.33;29.77;;;;;;;4.08;92.70;101500.92;1671352;85;21086;-81
2022/11/14 00:47:49;;;;;;;38.70;25.90;;;;;;;4.10;92.64;101500.92;1671389;85;21802;-81
2022/11/14 00:50:36;;;;;;;41.37;25.93;;;;;;;4.06;92.22;101500.04;1671512;85;21039;-81
2022/11/14 00:53:22;;;;;;;43.70;25.73;;;;;;;4.03;92.18;101504.77;1671293;85;21047;-82
2022/11/14 00:56:07;;;;;;;41.07;25.07;;;;;;;3.97;91.71;101494.79;1671278;85;21082;-81
2022/11/14 00:58:53;;;;;;;44.37;27.13;;;;;;;3.86;91.07;101499.03;1699803;83;21069;-81
2022/11/14 01:01:38;;;;;;;43.70;25.47;;;;;;;3.75;90.99;101497.20;1717328;82;21207;-83
2022/11/14 01:04:24;;;;;;;50.37;29.47;;;;;;;3.65;90.84;101494.52;1717182;82;21011;-81
2022/11/14 01:07:09;;;;;;;44.93;27.87;;;;;;;3.61;90.92;101486.28;1717205;82;21038;-81
2022/11/14 01:09:55;;;;;;;46.60;26.80;;;;;;;3.52;90.61;101484.45;1717312;82;21026;-81
2022/11/14 01:12:40;;;;;;;44.57;25.30;;;;;;;3.49;90.94;101480.13;1717362;82;21108;-81
2022/11/14 01:15:25;;;;;;;47.53;26.83;;;;;;;3.44;90.84;101480.95;1717354;82;22112;-81
2022/11/14 01:18:18;;;;;;;48.73;28.17;;;;;;;3.45;91.14;101476.19;1717144;82;21038;-81
2022/11/14 01:21:09;;;;;;;49.83;30.23;;;;;;;3.37;90.98;101473.52;1717265;82;21477;-81
2022/11/14 01:23:55;;;;;;;45.17;27.23;;;;;;;3.40;91.74;101471.39;1717303;82;21031;-81
2022/11/14 01:26:41;;;;;;;50.70;27.33;;;;;;;3.44;92.21;101468.84;1717473;82;20976;-81
2022/11/14 01:29:27;;;;;;;44.83;27.37;;;;;;;3.49;92.44;101463.28;1717292;82;22054;-81
2022/11/14 01:32:15;;;;;;;45.30;27.17;;;;;;;3.48;92.24;101460.66;1717220;82;21034;-81
2022/11/14 01:35:01;;;;;;;45.33;27.07;;;;;;;3.50;92.45;101448.16;1717231;82;21054;-81
2022/11/14 01:37:46;;;;;;;46.87;28.40;;;;;;;3.48;92.07;101451.59;1717351;82;21038;-81
2022/11/14 01:40:36;;;;;;;50.63;30.07;;;;;;;3.38;91.49;101447.17;1717302;82;21012;-81
2022/11/14 01:43:28;;;;;;;47.85;29.65;;;;;;;3.33;91.57;101438.94;1717652;82;22119;-81
2022/11/14 01:46:30;;;;;;;45.27;28.10;;;;;;;3.25;90.96;101438.00;1717214;83;21520;-81
2022/11/14 01:49:23;;;;;;;45.20;27.43;;;;;;;3.18;91.05;101443.09;1717189;82;21524;-81
2022/11/14 01:52:16;;;;;;;44.80;25.93;;;;;;;3.07;90.58;101433.92;1716238;82;20992;-81
2022/11/14 01:55:07;;;;;;;38.27;25.03;;;;;;;3.01;91.02;101433.43;1700260;82;21595;-80
2022/11/14 01:57:52;;;;;;;44.63;25.40;;;;;;;3.05;91.96;101426.15;1705123;82;21781;-80
2022/11/14 02:00:39;;;;;;;40.63;25.37;;;;;;;3.09;92.26;101421.86;1704969;82;21035;-82
2022/11/14 02:03:25;;;;;;;46.60;28.97;;;;;;;3.09;92.42;101419.27;1676089;82;21038;-81
2022/11/14 02:06:17;;;;;;;55.10;30.47;;;;;;;3.09;92.47;101413.66;1705111;82;21011;-81
2022/11/14 02:09:06;;;;;;;46.27;28.13;;;;;;;3.09;92.61;101412.36;1705040;82;21022;-81
2022/11/14 02:11:54;;;;;;;50.37;29.50;;;;;;;3.09;92.71;101410.20;1704931;82;21103;-81
2022/11/14 02:14:41;;;;;;;47.57;29.63;;;;;;;3.11;92.79;101407.20;1705006;82;20987;-81
2022/11/14 02:17:27;;;;;;;49.07;28.97;;;;;;;3.16;92.84;101404.24;1704997;82;21035;-81
2022/11/14 02:20:20;;;;;;;48.10;30.70;;;;;;;3.17;92.86;101407.69;1705034;82;21058;-82
2022/11/14 02:23:06;;;;;;;49.50;28.97;;;;;;;3.16;92.88;101411.12;1705048;82;21037;-81
2022/11/14 02:25:51;;;;;;;46.97;29.87;;;;;;;3.17;93.01;101412.44;1705292;82;21105;-81
2022/11/14 02:28:37;;;;;;;48.30;29.27;;;;;;;3.19;92.88;101404.66;1704939;82;20999;-81
2022/11/14 02:31:22;;;;;;;43.07;26.90;;;;;;;3.20;92.86;101402.53;1705133;82;21018;-81
2022/11/14 02:34:07;;;;;;;45.33;27.80;;;;;;;3.17;92.63;101413.73;1704942;82;21526;-81
2022/11/14 02:36:53;;;;;;;41.90;26.80;;;;;;;3.19;92.73;101415.92;1705068;82;21551;-81
2022/11/14 02:39:38;;;;;;;43.60;25.50;;;;;;;3.10;91.99;101406.34;1705033;82;21947;-82
2022/11/14 02:42:24;;;;;;;39.00;24.90;;;;;;;3.04;91.82;101398.48;1704972;82;21508;-81
2022/11/14 02:45:11;;;;;;;40.27;26.10;;;;;;;3.00;91.75;101397.17;1704999;82;21069;-81
2022/11/14 02:47:56;;;;;;;40.17;26.37;;;;;;;2.97;91.95;101407.07;1705024;82;21046;-81
2022/11/14 02:50:42;;;;;;;40.70;25.93;;;;;;;2.98;92.25;101404.91;1705077;82;21511;-81
2022/11/14 02:53:27;;;;;;;44.50;26.13;;;;;;;2.98;92.08;101401.46;1704981;82;21942;-81
2022/11/14 02:56:12;;;;;;;40.90;25.07;;;;;;;2.93;91.95;101396.22;1704925;82;21018;-81
2022/11/14 02:58:58;;;;;;;36.63;25.10;;;;;;;2.94;92.43;101399.67;1705020;82;21077;-82
2022/11/14 03:01:43;;;;;;;41.00;25.53;;;;;;;2.95;92.33;101394.95;1705000;82;21030;-82
2022/11/14 03:04:29;;;;;;;37.23;25.37;;;;;;;2.93;92.13;101390.18;1705058;82;21516;-81
2022/11/14 03:07:14;;;;;;;41.10;24.83;;;;;;;2.86;91.96;101394.01;1705036;82;21885;-82
2022/11/14 03:10:00;;;;;;;44.33;27.10;;;;;;;2.84;92.05;101390.95;1704965;82;21019;-82
2022/11/14 03:12:45;;;;;;;43.70;26.00;;;;;;;2.81;92.37;101390.50;1705131;82;21014;-82
2022/11/14 03:15:30;;;;;;;44.23;26.50;;;;;;;2.83;92.50;101389.23;1705065;82;21519;-82
2022/11/14 03:18:15;;;;;;;45.53;27.27;;;;;;;2.83;92.76;101393.12;1705044;82;21026;-82
2022/11/14 03:21:10;;;;;;;44.57;29.17;;;;;;;2.89;93.16;101395.33;1705180;82;21133;-82
2022/11/14 03:23:55;;;;;;;46.20;27.50;;;;;;;2.98;93.63;101390.67;1705059;82;21094;-82
2022/11/14 03:26:41;;;;;;;47.07;29.30;;;;;;;3.05;94.01;101387.30;1705005;82;21062;-82
2022/11/14 03:29:27;;;;;;;49.03;30.83;;;;;;;3.13;93.91;101395.11;1705049;82;21479;-82
2022/11/14 03:32:12;;;;;;;44.97;28.97;;;;;;;3.20;94.07;101396.92;1705123;82;21565;-82
2022/11/14 03:34:57;;;;;;;44.60;27.83;;;;;;;3.25;94.08;101393.95;1705028;82;21314;-82
2022/11/14 03:37:43;;;;;;;45.07;28.13;;;;;;;3.26;93.68;101390.92;1704885;82;21018;-82
2022/11/14 03:40:28;;;;;;;46.83;28.50;;;;;;;3.24;93.59;101388.34;1705060;82;21034;-81
2022/11/14 03:43:13;;;;;;;49.13;29.23;;;;;;;3.30;93.94;101389.69;1704932;82;21034;-81
2022/11/14 03:46:01;;;;;;;44.13;28.30;;;;;;;3.33;93.82;101384.95;1705154;82;21348;-81
2022/11/14 03:48:46;;;;;;;42.10;27.47;;;;;;;3.38;93.96;101382.38;1705124;82;22015;-81
2022/11/14 03:51:32;;;;;;;43.63;27.87;;;;;;;3.41;94.00;101381.11;1705130;82;21038;-81
2022/11/14 03:54:17;;;;;;;42.80;26.77;;;;;;;3.45;94.00;101381.59;1705059;82;21010;-81
2022/11/14 03:57:03;;;;;;;45.83;27.43;;;;;;;3.47;93.83;101376.00;1705212;82;21616;-81
2022/11/14 03:59:48;;;;;;;45.40;27.73;;;;;;;3.49;93.89;101367.38;1705105;82;21026;-81
2022/11/14 04:02:34;;;;;;;43.90;28.73;;;;;;;3.51;93.83;101366.08;1705250;82;21902;-81
2022/11/14 04:05:20;;;;;;;43.07;26.47;;;;;;;3.53;93.84;101369.56;1704980;82;21035;-81
2022/11/14 04:08:06;;;;;;;46.93;27.93;;;;;;;3.54;93.83;101359.62;1705132;82;21486;-81
2022/11/14 04:10:51;;;;;;;45.10;27.13;;;;;;;3.53;93.76;101354.87;1733959;82;21019;-81
2022/11/14 04:13:37;;;;;;;46.33;27.20;;;;;;;3.57;93.75;101366.12;1717455;82;20984;-81
2022/11/14 04:16:22;;;;;;;41.63;26.10;;;;;;;3.54;93.62;101362.21;1717354;82;21405;-82
2022/11/14 04:19:08;;;;;;;42.37;26.30;;;;;;;3.53;93.63;101356.16;1717507;82;21054;-81
2022/11/14 04:21:53;;;;;;;41.33;25.90;;;;;;;3.51;93.49;101359.59;1717386;82;21086;-81
2022/11/14 04:24:39;;;;;;;45.60;27.90;;;;;;;3.48;93.43;101357.84;1717526;82;21016;-81
2022/11/14 04:27:24;;;;;;;44.97;26.73;;;;;;;3.49;93.79;101359.61;1717345;82;21030;-81
2022/11/14 04:30:11;;;;;;;48.93;28.47;;;;;;;3.50;93.71;101364.36;1717470;82;22247;-81
2022/11/14 04:32:56;;;;;;;47.87;28.93;;;;;;;3.49;93.77;101364.79;1717310;82;21022;-81
2022/11/14 04:35:41;;;;;;;46.13;27.73;;;;;;;3.49;93.75;101352.23;1717347;82;21001;-81
2022/11/14 04:38:26;;;;;;;41.20;26.60;;;;;;;3.50;94.09;101345.78;1717389;82;21030;-81
2022/11/14 04:41:12;;;;;;;44.20;28.03;;;;;;;3.54;94.30;101350.55;1717374;82;21330;-81
2022/11/14 04:43:57;;;;;;;46.03;27.97;;;;;;;3.56;94.20;101356.61;1717352;82;21781;-81
2022/11/14 04:46:42;;;;;;;45.20;28.70;;;;;;;3.53;93.91;101356.59;1717292;82;21413;-81
2022/11/14 04:49:28;;;;;;;41.60;25.77;;;;;;;3.50;93.92;101357.44;1717269;82;21019;-81
2022/11/14 04:52:13;;;;;;;44.00;28.03;;;;;;;3.49;93.98;101352.23;1717257;82;21039;-81
2022/11/14 04:54:59;;;;;;;45.93;27.00;;;;;;;3.50;94.13;101355.28;1717283;82;21110;-81
2022/11/14 04:57:44;;;;;;;41.43;27.17;;;;;;;3.48;94.13;101348.78;1717361;82;21238;-82
2022/11/14 05:00:29;;;;;;;40.03;25.50;;;;;;;3.47;94.00;101349.64;1717215;82;21565;-81
2022/11/14 05:03:15;;;;;;;43.10;26.33;;;;;;;3.41;93.94;101349.61;1717255;82;21027;-81
2022/11/14 05:06:01;;;;;;;47.73;28.87;;;;;;;3.42;94.19;101347.88;1717383;82;21015;-81
2022/11/14 05:08:47;;;;;;;42.43;26.93;;;;;;;3.43;94.36;101343.13;1717563;82;21553;-81
2022/11/14 05:11:33;;;;;;;45.07;27.47;;;;;;;3.45;94.57;101338.39;1717211;82;21074;-81
2022/11/14 05:14:18;;;;;;;43.30;26.30;;;;;;;3.48;94.67;101333.66;1717270;82;21011;-81
2022/11/14 05:17:04;;;;;;;41.70;25.83;;;;;;;3.49;94.52;101337.97;1717374;82;21281;-81
2022/11/14 05:19:49;;;;;;;42.13;26.57;;;;;;;3.49;94.70;101331.09;1717357;82;21003;-81
2022/11/14 05:22:34;;;;;;;41.10;26.30;;;;;;;3.53;94.67;101326.79;1717302;82;21485;-81
2022/11/14 05:25:21;;;;;;;41.37;26.30;;;;;;;3.53;94.52;101330.67;1717320;82;21131;-81
2022/11/14 05:28:06;;;;;;;40.50;25.50;;;;;;;3.51;94.30;101329.79;1717215;82;21070;-81
2022/11/14 05:30:52;;;;;;;39.50;25.37;;;;;;;3.49;94.41;101325.91;1717332;82;21432;-81
2022/11/14 05:33:37;;;;;;;42.77;27.03;;;;;;;3.52;94.57;101318.15;1717351;82;20984;-81
2022/11/14 05:36:22;;;;;;;43.57;25.40;;;;;;;3.52;94.41;101318.55;1717381;82;21091;-81
2022/11/14 05:39:07;;;;;;;40.90;26.10;;;;;;;3.51;94.25;101322.02;1717288;82;21165;-81
2022/11/14 05:41:53;;;;;;;43.23;25.83;;;;;;;3.48;94.14;101325.88;1717299;82;20948;-81
2022/11/14 05:44:38;;;;;;;42.17;26.00;;;;;;;3.44;94.11;101326.30;1717318;82;21493;-81
2022/11/14 05:47:23;;;;;;;42.67;25.97;;;;;;;3.42;94.07;101328.00;1717284;82;20999;-81
2022/11/14 05:50:09;;;;;;;42.57;26.07;;;;;;;3.39;93.97;101325.83;1717290;82;21026;-81
2022/11/14 05:52:56;;;;;;;43.53;26.10;;;;;;;3.38;94.03;101329.25;1717256;82;21726;-81
2022/11/14 05:55:41;;;;;;;38.27;24.60;;;;;;;3.34;93.96;101325.78;1717264;82;21034;-81
2022/11/14 05:58:27;;;;;;;41.13;25.50;;;;;;;3.30;93.94;101327.49;1717319;82;21042;-81
2022/11/14 06:01:17;;;;;;;42.67;25.47;;;;;;;3.34;94.65;101329.67;1720669;82;21298;-81
2022/11/14 06:04:05;;;;;;;37.70;24.70;;;;;;;3.46;95.08;101331.48;1687428;84;21083;-81
2022/11/14 06:06:51;;;;;;;44.10;26.00;;;;;;;3.47;94.62;101334.09;1694138;84;21205;-81
2022/11/14 06:09:36;;;;;;;44.13;25.47;;;;;;;3.46;94.54;101325.00;1693554;84;21390;-82
2022/11/14 06:12:21;;;;;;;40.97;26.07;;;;;;;3.47;94.35;101322.87;1680542;84;21063;-79
2022/11/14 06:15:07;;;;;;;39.67;25.43;;;;;;;3.50;94.40;101321.59;1693599;84;21500;-77
2022/11/14 06:17:53;;;;;;;40.97;26.93;;;;;;;3.46;94.30;101328.45;1692850;84;21043;-77
2022/11/14 06:20:38;;;;;;;45.17;26.27;;;;;;;3.43;94.24;101332.32;1693439;84;21960;-85
2022/11/14 06:23:24;;;;;;;40.27;26.13;;;;;;;3.39;93.98;101330.58;1693897;84;21008;-79
2022/11/14 06:26:22;;;;;;;43.83;27.00;;;;;;;3.38;94.36;101330.55;1719029;82;21480;-79
2022/11/14 06:29:09;;;;;;;40.53;26.70;;;;;;;3.40;94.42;101328.41;1694149;84;21008;-80
2022/11/14 06:31:54;;;;;;;42.77;26.57;;;;;;;3.40;94.27;101328.84;1693912;84;21035;-82
2022/11/14 06:34:40;;;;;;;43.83;26.73;;;;;;;3.37;94.33;101325.80;1684369;84;21316;-80
2022/11/14 06:37:25;;;;;;;42.40;26.10;;;;;;;3.41;94.76;101325.39;1715158;82;21491;-80
2022/11/14 06:40:11;;;;;;;42.50;26.83;;;;;;;3.46;94.83;101327.59;1714802;82;21046;-83
2022/11/14 06:42:56;;;;;;;42.57;26.63;;;;;;;3.43;94.50;101339.23;1714332;83;21035;-80
2022/11/14 06:45:41;;;;;;;40.00;25.90;;;;;;;3.44;94.62;101337.10;1721082;82;21256;-80
2022/11/14 06:48:27;;;;;;;44.83;27.63;;;;;;;3.44;94.46;101343.15;1715367;82;21086;-79
2022/11/14 06:51:14;;;;;;;40.70;25.80;;;;;;;3.40;94.23;101341.80;1714917;82;21035;-79
2022/11/14 06:53:59;;;;;;;40.97;25.97;;;;;;;3.38;94.50;101336.62;1719956;82;21022;-78
2022/11/14 06:56:45;;;;;;;43.63;26.97;;;;;;;3.41;94.69;101335.35;1691220;84;21039;-80
2022/11/14 06:59:30;;;;;;;44.03;26.17;;;;;;;3.45;94.89;101333.20;1688324;84;21478;-80
2022/11/14 07:02:16;;;;;;;42.27;27.30;;;;;;;3.49;95.28;101330.20;1693492;84;22035;-82
2022/11/14 07:05:01;;;;;;;43.57;26.03;;;;;;;3.58;95.47;101338.06;1690841;84;21077;-82
2022/11/14 07:07:46;;;;;;;42.37;25.23;;;;;;;3.61;95.30;101329.00;1693876;84;21034;-79
2022/11/14 07:10:32;;;;;;;42.90;25.17;;;;;;;3.64;95.28;101329.02;1695927;84;20993;-82
2022/11/14 07:13:17;;;;;;;40.00;24.33;;;;;;;3.67;95.34;101318.66;1689904;84;21038;-79
2022/11/14 07:16:04;;;;;;;42.27;25.77;;;;;;;3.73;95.37;101321.72;1691257;84;21939;-78
2022/11/14 07:18:49;;;;;;;43.83;25.87;;;;;;;3.78;95.59;101329.10;1692453;84;20930;-80
2022/11/14 07:21:35;;;;;;;41.17;24.90;;;;;;;3.83;95.73;101320.92;1690067;84;21512;-81
2022/11/14 07:24:21;;;;;;;39.60;24.70;;;;;;;3.87;95.53;101310.98;1692925;84;21046;-81
2022/11/14 07:27:09;;;;;;;38.67;23.63;;;;;;;3.92;95.60;101311.02;1713413;82;21009;-81
2022/11/14 07:29:55;;;;;;;38.90;24.63;;;;;;;4.04;96.14;101311.06;1709282;83;21724;-82
2022/11/14 07:32:40;;;;;;;39.50;25.03;;;;;;;4.15;96.03;101312.41;1710940;83;21090;-81
2022/11/14 07:35:26;;;;;;;40.53;24.07;;;;;;;4.15;95.55;101317.60;1713704;83;20925;-81
2022/11/14 07:38:11;;;;;;;40.53;24.70;;;;;;;4.16;95.52;101307.23;1713427;83;21048;-80
2022/11/14 07:40:59;;;;;;;38.93;23.50;;;;;;;4.22;95.63;101314.19;1712558;83;21367;-78
2022/11/14 07:43:45;;;;;;;41.00;24.07;;;;;;;4.27;95.51;101305.09;1713431;83;21493;-80
2022/11/14 07:46:30;;;;;;;43.97;24.30;;;;;;;4.30;95.62;101307.73;1714110;83;21009;-80
2022/11/14 07:49:16;;;;;;;40.53;24.10;;;;;;;4.35;95.74;101310.77;1714821;83;21034;-80
2022/11/14 07:52:01;;;;;;;40.43;23.93;;;;;;;4.42;95.85;101298.66;1714704;83;21021;-79
2022/11/14 07:54:47;;;;;;;38.33;22.97;;;;;;;4.48;95.76;101300.83;1710215;82;21072;-80
2022/11/14 07:57:32;;;;;;;41.40;25.00;;;;;;;4.57;96.19;101293.92;1714176;83;22104;-80
2022/11/14 08:00:18;;;;;;;45.00;24.50;;;;;;;4.69;96.11;101293.97;1716660;82;21022;-81
2022/11/14 08:03:09;;;;;;;38.27;23.00;;;;;;;4.75;95.88;101299.60;1722067;82;21518;-81
2022/11/14 08:06:02;;;;;;;;;;;;;;;4.81;95.94;101293.11;1728371;81;21014;-80
2022/11/14 08:08:47;;;;;;;42.87;24.83;;;;;;;4.86;95.75;101288.79;1716093;82;20499;-80
2022/11/14 08:11:48;;;;;;;42.53;25.50;;;;;;;4.84;95.35;101283.58;1722662;81;21317;-79
2022/11/14 08:14:34;;;;;;;41.98;24.98;;;;;;;4.82;95.33;101273.64;1720634;81;21399;-80
2022/11/14 08:17:21;;;;;;;43.30;25.03;;;;;;;4.86;95.52;101273.20;1720938;81;21501;-80
2022/11/14 08:20:08;;;;;;;43.57;26.17;;;;;;;4.87;95.40;101271.89;1720525;81;20952;-80
2022/11/14 08:22:56;;;;;;;43.07;24.90;;;;;;;4.91;95.55;101267.14;1721082;81;21026;-79
2022/11/14 08:25:41;;;;;;;41.37;24.73;;;;;;;4.91;95.40;101263.69;1720701;81;21117;-79
2022/11/14 08:28:27;;;;;;;44.83;25.47;;;;;;;4.92;95.43;101269.30;1720436;81;21965;-80
2022/11/14 08:31:12;;;;;;;46.70;25.90;;;;;;;4.99;95.80;101264.55;1720347;81;21030;-80
2022/11/14 08:33:58;;;;;;;45.70;25.73;;;;;;;5.03;95.66;101250.67;1720743;81;21035;-80
2022/11/14 08:36:43;;;;;;;43.60;25.10;;;;;;;5.06;95.67;101255.87;1723948;83;21050;-81
2022/11/14 08:39:29;;;;;;;44.57;25.10;;;;;;;5.09;95.67;101259.77;1732076;81;22117;-81
2022/11/14 08:42:17;;;;;;;41.50;23.83;;;;;;;5.14;95.67;101238.53;1737094;81;21062;-81
2022/11/14 08:45:03;;;;;;;44.40;25.03;;;;;;;5.20;95.87;101231.61;1741575;81;21019;-80
2022/11/14 08:47:53;;;;;;;41.80;24.20;;;;;;;5.30;95.81;101234.63;1737934;81;21059;-78
2022/11/14 08:50:38;;;;;;;42.67;24.33;;;;;;;5.30;95.58;101228.12;1725538;81;21027;-81
2022/11/14 08:53:24;;;;;;;40.53;25.03;;;;;;;5.35;95.50;101238.09;1721107;81;21157;-81
2022/11/14 08:56:10;;;;;;;41.47;24.40;;;;;;;5.40;95.62;101225.06;1722685;82;21007;-81
2022/11/14 08:58:56;;;;;;;45.20;24.63;;;;;;;5.46;95.72;101231.53;1722699;82;21590;-80
2022/11/14 09:01:42;;;;;;;44.73;25.40;;;;;;;5.53;95.78;101226.76;1718048;81;21015;-80
2022/11/14 09:04:27;;;;;;;43.53;25.40;;;;;;;5.63;95.85;101225.88;1717206;82;21520;-80
2022/11/14 09:07:13;;;;;;;44.50;25.43;;;;;;;5.72;95.94;101227.13;1716824;83;21928;-80
2022/11/14 09:09:59;;;;;;;48.70;26.97;;;;;;;5.85;96.12;101225.77;1716889;82;21059;-80
2022/11/14 09:12:44;;;;;;;45.97;26.20;;;;;;;5.97;96.22;101232.27;1717357;82;20994;-81
2022/11/14 09:15:29;;;;;;;44.00;26.07;;;;;;;6.08;95.88;101233.07;1717306;82;21494;-80
2022/11/14 09:18:15;;;;;;;43.17;24.63;;;;;;;6.17;95.70;101226.50;1717386;82;21066;-81
2022/11/14 09:21:07;;;;;;;40.30;23.90;;;;;;;6.32;95.72;101220.77;1717323;82;21282;-80
2022/11/14 09:23:53;;;;;;;40.97;23.80;;;;;;;6.52;95.68;101215.45;1717190;82;21559;-80
2022/11/14 09:26:38;;;;;;;42.47;24.20;;;;;;;6.63;95.64;101211.89;1717279;82;21035;-81
2022/11/14 09:29:24;;;;;;;38.80;22.30;;;;;;;6.67;95.26;101214.02;1717286;82;21052;-80
2022/11/14 09:32:11;;;;;;;37.40;22.73;;;;;;;6.73;95.10;101213.96;1717325;82;21406;-81
2022/11/14 09:34:56;;;;;;;35.77;22.77;;;;;;;6.88;95.03;101209.08;1717301;82;21320;-81
2022/11/14 09:37:42;;;;;;;33.30;20.77;;;;;;;6.92;94.66;101195.12;1717171;82;21561;-80
2022/11/14 09:40:27;;;;;;;36.53;20.93;;;;;;;6.88;94.17;101193.00;1717267;82;21007;-81
2022/11/14 09:43:23;;;;;;;32.40;21.07;;;;;;;6.91;94.12;101198.63;1717311;82;21536;-81
2022/11/14 09:46:23;;;;;;;33.93;22.07;;;;;;;6.99;93.93;101195.95;1717284;82;21007;-80
2022/11/14 09:49:38;;;;;;;33.80;21.82;;;;;;;7.03;93.62;101200.24;1717367;82;21163;-81
2022/11/14 09:52:46;;;;;;;35.27;22.77;;;;;;;7.11;93.64;101197.13;1717148;82;21015;-80
2022/11/14 09:55:33;;;;;;;33.40;21.40;;;;;;;7.49;94.10;101193.25;1717272;82;21003;-81
2022/11/14 09:58:20;;;;;;;35.40;22.33;;;;;;;7.67;93.62;101199.53;1717310;82;21039;-80
2022/11/14 10:01:17;;;;;;;35.87;23.03;;;;;;;7.65;93.15;101193.91;1717422;82;21014;-81
2022/11/14 10:04:24;;;;;;;36.77;22.43;;;;;;;7.64;93.07;101194.35;1717502;82;21169;-81
2022/11/14 10:07:24;;;;;;;34.87;23.73;;;;;;;7.69;92.97;101187.78;1717498;82;20991;-81
2022/11/14 10:10:33;;;;;;;36.13;24.13;;;;;;;7.90;93.09;101185.33;1717502;82;21049;-82
2022/11/14 10:14:04;;;;;;;30.17;21.23;;;;;;;8.32;93.05;101183.02;1717651;82;21071;-81
2022/11/14 10:17:00;;;;;;;45.15;27.58;;;;;;;8.57;92.66;101184.38;1717714;82;26574;-82
2022/11/14 10:20:09;;;;;;;34.67;23.07;;;;;;;8.63;92.06;101180.80;1717825;82;21140;-82
2022/11/14 10:23:11;;;;;;;31.80;21.07;;;;;;;8.59;91.60;101182.61;1717513;82;21497;-82
2022/11/14 10:26:23;;;;;;;31.30;21.53;;;;;;;8.52;90.94;101176.20;1717572;82;21019;-82
2022/11/14 10:30:03;;;;;;;32.45;21.07;;;;;;;8.67;91.06;101171.59;1717479;82;21472;-82
2022/11/14 10:33:24;;;;;;;36.48;24.23;;;;;;;9.06;90.95;101163.04;1717739;82;21074;-82
2022/11/14 10:36:31;;;;;;;36.08;25.12;;;;;;;9.66;91.36;101161.42;1717604;82;21116;-80
2022/11/14 10:39:39;;;;;;;38.60;25.75;;;;;;;10.11;90.35;101157.36;1717455;82;21587;-82
2022/11/14 10:42:33;;;;;;;32.60;23.20;;;;;;;10.46;89.63;101156.57;1717602;82;21026;-81
2022/11/14 10:45:32;;;;;;;32.05;21.55;;;;;;;10.66;88.24;101156.52;1717510;82;21003;-83
2022/11/14 10:48:26;;;;;;;30.35;21.87;;;;;;;10.88;88.05;101152.45;1717793;82;22047;-82
2022/11/14 10:51:40;;;;;;;30.70;21.40;;;;;;;11.09;87.21;101145.78;1717580;82;21328;-81
2022/11/14 10:54:51;;;;;;;32.42;22.42;;;;;;;11.35;87.04;101152.91;1658785;85;21656;-84
2022/11/14 10:57:37;;;;;;;30.88;22.25;;;;;;;11.48;85.91;101140.31;1705674;82;21484;-83
2022/11/14 11:00:23;;;;;;;33.75;22.20;;;;;;;11.68;85.63;101144.12;1717562;82;21059;-82
2022/11/14 11:03:08;;;;;;;32.17;23.83;;;;;;;11.95;85.60;101136.75;1675477;84;21046;-82
2022/11/14 11:05:57;;;;;;;33.58;25.25;;;;;;;12.24;84.62;101133.65;1675387;84;21141;-82
2022/11/14 11:11:57;;;;;;;30.43;24.67;;;;;;;12.77;82.74;101123.56;1705270;82;21003;-81
2022/11/14 11:14:44;;;;;;;32.05;24.92;;;;;;;13.19;82.13;101125.16;1705316;82;21475;-81
2022/11/14 11:17:29;;;;;;;31.15;24.95;;;;;;;13.45;81.04;101114.14;1684812;83;21015;-84
2022/11/14 11:20:33;;;;;;;31.52;25.12;;;;;;;13.64;80.36;101106.41;1699894;82;21375;-82
2022/11/14 11:23:23;;;;;;;29.98;24.70;;;;;;;13.85;79.83;101105.55;1705256;82;21027;-81
2022/11/14 11:26:30;;;;;;;32.23;23.57;;;;;;;14.00;79.32;101107.59;1705295;82;21019;-82
2022/11/14 11:29:18;;;;;;;30.77;24.45;;;;;;;14.11;78.11;101112.44;1705193;82;21062;-84
2022/11/14 11:32:04;;;;;;;30.52;23.38;;;;;;;14.13;77.75;101102.66;1705243;82;21849;-82
2022/11/14 11:34:51;;;;;;;32.55;24.27;;;;;;;14.23;77.82;101092.61;1705266;82;21146;-82
2022/11/14 11:37:56;;;;;;;28.00;20.82;;;;;;;14.19;78.01;101087.94;1705177;82;21062;-82
2022/11/14 11:40:40;;;;;;;29.30;22.32;;;;;;;14.18;78.16;101090.16;1705266;82;21030;-83
2022/11/14 11:43:37;;;;;;;30.90;23.30;;;;;;;14.10;77.43;101078.22;1705310;82;20938;-86
2022/11/14 11:46:27;;;;;;;30.15;22.67;;;;;;;13.97;76.44;101081.83;1704108;82;21035;-82
2022/11/14 11:49:34;;;;;;;29.35;23.00;;;;;;;13.92;77.17;101076.73;1705226;82;22285;-82
2022/11/14 11:52:44;;;;;;;31.85;23.12;;;;;;;14.02;76.95;101064.02;1704626;82;21078;-83
2022/11/14 11:55:39;;;;;;;31.60;22.62;;;;;;;14.02;76.93;101057.43;1688663;84;21417;-82
2022/11/14 11:58:38;;;;;;;29.40;22.60;;;;;;;13.90;75.74;101066.70;1705236;82;21038;-82
2022/11/14 12:01:24;;;;;;;31.80;22.75;;;;;;;13.84;76.11;101069.12;1708550;82;21063;-84
2022/11/14 12:04:10;;;;;;;32.85;22.32;;;;;;;13.90;76.19;101063.21;1717415;82;21157;-82
2022/11/14 12:07:16;;;;;;;28.75;21.10;;;;;;;13.96;76.09;101061.17;1717767;82;21035;-81
2022/11/14 12:10:16;;;;;;;28.60;22.62;;;;;;;14.04;75.92;101060.87;1717790;82;21062;-83
2022/11/14 12:13:42;;;;;;;29.40;21.97;;;;;;;14.09;75.88;101060.69;1722760;82;21569;-82
2022/11/14 12:17:02;;;;;;;30.00;22.85;;;;;;;14.23;75.71;101052.59;1657515;84;21563;-84
2022/11/14 12:20:07;;;;;;;29.37;22.37;;;;;;;14.22;75.11;101044.77;1640144;85;21115;-83
2022/11/14 12:23:04;;;;;;;29.30;22.07;;;;;;;14.30;74.96;101046.63;1645113;86;21091;-82
2022/11/14 12:26:26;;;;;;;29.42;23.70;;;;;;;14.30;74.58;101042.67;1674070;84;21565;-82
2022/11/14 12:29:40;;;;;;;30.40;22.48;;;;;;;14.17;73.89;101034.41;1622027;86;21501;-81
2022/11/14 12:32:46;;;;;;;28.15;22.30;;;;;;;14.12;74.11;101035.52;1678123;84;21059;-82
2022/11/14 12:35:34;;;;;;;31.15;22.82;;;;;;;14.11;73.97;101032.50;1641284;86;22226;-80
2022/11/14 12:38:21;;;;;;;30.62;22.62;;;;;;;13.97;73.66;101029.11;1640791;86;21074;-78
2022/11/14 12:41:07;;;;;;;30.70;23.25;;;;;;;13.99;74.02;101023.30;1640501;86;21520;-80
2022/11/14 12:44:15;;;;;;;29.70;22.85;;;;;;;13.97;73.34;101020.73;1647267;86;21111;-82
2022/11/14 12:47:14;;;;;;;31.75;22.87;;;;;;;13.83;73.25;101012.09;1652096;86;21058;-79
2022/11/14 12:50:02;;;;;;;31.87;23.47;;;;;;;13.69;73.18;100993.78;1640368;86;27267;-78
2022/11/14 12:52:50;;;;;;;32.28;24.05;;;;;;;13.59;73.40;101000.75;1640196;86;21046;-80
2022/11/14 12:55:46;;;;;;;28.17;22.98;;;;;;;13.58;73.22;101012.68;1647350;86;21059;-78
2022/11/14 12:59:07;;;;;;;32.10;23.22;;;;;;;13.66;73.51;101018.47;1665052;84;21063;-79
2022/11/14 13:01:58;;;;;;;30.20;23.50;;;;;;;13.80;73.01;101022.75;1668907;84;21715;-79